Yarrawonga, Victoria

3:48 AM EST on August 21, 2014 (GMT +1000)
Albury | Change Station
CLOSE
Current Station
Airport
Location: Albury,
Elevation: 541 ft
Nearby Weather Stations

Elev 541 ft 36.07 °S, 146.96 °E | Updated 1 hour ago

Clear
Clear
41 °F
Feels Like 39 °F
N
4
Wind Variable Wind from NNW

Today
High -- | Low -- °F
--% Chance of Precip.
Yesterday
High -- | Low -- °F
Precip. -- in
6:51 AM 5:47 PM
Waning Crescent, 20% visible
Pressure 30.33 in
Visibility 6.2 miles
Clouds
Windchill 39 °F
Dew Point 41 °F
Humidity 100%
Rainfall 0.00 in
Snow Depth Not available.
UV Not available.
Pollen Not available.
Air Quality Not available.
Flu Activity Not available.
METAR YMAY 201600Z AUTO 34003KT 9999 // NCD 05/05 Q1027

More Conditions Fewer Conditions

Pressure 30.33 in
Visibility 6.2 miles
Clouds
Windchill 39 °F
Dew Point 41 °F
Humidity 100%
Rainfall 0.00 in
Snow Depth Not available.
UV Not available.
Pollen Not available.
Air Quality Not available.
Flu Activity Not available.
METAR YMAY 201600Z AUTO 34003KT 9999 // NCD 05/05 Q1027

More Conditions Fewer Conditions

10-Day Weather Forecast

Almanac

Astronomy

Aug. 21, 2014 Rise Set
Actual Time 6:51 AM EST 5:47 PM EST
Civil Twilight 6:25 AM EST 6:13 PM EST
Nautical Twilight 5:55 AM EST 6:43 PM EST
Astronomical Twilight 5:25 AM EST 7:13 PM EST
Moon 3:35 AM EST (8/21) 2:03 PM EST (8/21)
Length of Visible Light 11h 48m
Length of Day
10h 56m
Tomorrow will be 2m 2s longer.
Waning Crescent, 20% of the Moon is Illuminated
Aug 20
Waning Crescent
Aug 25
New
Sep 2
First Quarter
Sep 8
Full
Sep 15
Last Quarter

Yesterday's Extremes

Country Highs Country Lows

Community

WunderPhotos

Upload Photos

1,745,699 photos uploaded!

WunderBlogs® & News

By Dr. Jeff Masters
Director of Meteorology, Weather Underground
By Kari Strenfel
Meteorologist, Weather Underground
By Christopher C. Burt
Weather Historian, Weather Underground
August 20, 2014
August 20, 2014
August 20, 2014

Nearby

Snow Depth

Not available.

Earthquake Activity

City Distance Mag. Time & Date
No recent earthquake activity has been reported nearby.
Minimum magnitude displayed is 2.5.

Coastal Water Temperatures

Place Temperature
No Stations Reporting

Nearby Weather Stations